Time;durP1;ratioP1;P1;durP2;ratioP2;P2;SDS_P1;SDS_P2;PMS_P1;PMS_P2;Temp;Humidity;BMP_temperature;BMP_pressure;BME280_temperature;BME280_humidity;BME280_pressure;Samples;Min_cycle;Max_cycle;Signal;HPM_P1;HPM_P2
2023/10/14 00:01:03;;;;;;;8.75;4.72;;;;;;;13.41;61.60;95317.19;5020913;28;20194;-72
2023/10/14 00:03:32;;;;;;;5.80;4.63;;;;;;;13.44;61.48;95312.88;5037238;28;20660;-72
2023/10/14 00:06:02;;;;;;;7.40;4.88;;;;;;;13.43;61.34;95308.47;5020104;28;20194;-72
2023/10/14 00:08:31;;;;;;;6.10;4.40;;;;;;;13.38;61.66;95306.03;5037382;28;20197;-72
2023/10/14 00:11:04;;;;;;;8.25;5.15;;;;;;;13.35;61.39;95304.78;5037633;28;20209;-72
2023/10/14 00:13:35;;;;;;;5.07;4.22;;;;;;;13.32;61.57;95301.94;5020138;28;20222;-72
2023/10/14 00:16:08;;;;;;;4.97;4.43;;;;;;;13.24;61.81;95303.75;5037915;28;20201;-73
2023/10/14 00:18:35;;;;;;;5.63;4.40;;;;;;;13.20;61.89;95300.88;5037184;28;20301;-72
2023/10/14 00:21:04;;;;;;;6.55;4.35;;;;;;;13.18;61.83;95297.69;5019891;28;20281;-72
2023/10/14 00:23:32;;;;;;;8.23;4.22;;;;;;;13.18;62.00;95294.09;5020023;28;20304;-72
2023/10/14 00:25:59;;;;;;;8.80;4.00;;;;;;;13.16;61.96;95294.47;5020278;28;20222;-72
2023/10/14 00:28:27;;;;;;;7.35;4.60;;;;;;;13.14;62.10;95291.25;5020072;28;20238;-72
2023/10/14 00:30:55;;;;;;;8.10;4.80;;;;;;;13.11;62.00;95294.78;5019669;28;20205;-72
2023/10/14 00:33:24;;;;;;;6.55;4.68;;;;;;;13.06;62.38;95288.72;5019823;28;20233;-72
2023/10/14 00:35:56;;;;;;;5.93;4.18;;;;;;;13.03;62.43;95287.47;5036637;28;20365;-71
2023/10/14 00:38:24;;;;;;;6.30;4.38;;;;;;;13.03;62.36;95290.22;5036938;28;20210;-71
2023/10/14 00:40:52;;;;;;;7.57;4.63;;;;;;;13.01;62.41;95287.84;5036537;28;20196;-72
2023/10/14 00:43:20;;;;;;;5.18;3.75;;;;;;;12.93;62.56;95285.28;5036416;28;20624;-72
2023/10/14 00:45:48;;;;;;;5.28;3.97;;;;;;;12.90;62.37;95292.34;5019046;28;20241;-72
2023/10/14 00:48:19;;;;;;;5.57;4.32;;;;;;;12.89;62.50;95279.66;5019814;28;20210;-71
2023/10/14 00:50:46;;;;;;;4.95;4.03;;;;;;;12.91;62.52;95282.84;5037123;28;20191;-71
2023/10/14 00:53:16;;;;;;;5.50;4.25;;;;;;;12.90;62.45;95281.28;5019775;28;20194;-72
2023/10/14 00:55:53;;;;;;;5.85;4.35;;;;;;;12.90;62.34;95275.72;5019133;28;20198;-72
2023/10/14 00:58:23;;;;;;;6.82;4.32;;;;;;;12.88;62.67;95277.25;5018865;28;20641;-72
2023/10/14 01:00:59;;;;;;;8.02;4.70;;;;;;;12.87;62.26;95275.66;5035723;28;20198;-72
2023/10/14 01:03:26;;;;;;;6.05;4.30;;;;;;;12.87;62.47;95268.16;5036117;28;20186;-72
2023/10/14 01:05:55;;;;;;;5.47;4.45;;;;;;;12.85;62.33;95270.47;5019165;28;20198;-72
2023/10/14 01:08:22;;;;;;;7.35;4.53;;;;;;;12.85;62.19;95259.38;5018917;28;20229;-72
2023/10/14 01:10:51;;;;;;;6.93;4.53;;;;;;;12.84;62.29;95257.78;5019207;28;20207;-72
2023/10/14 01:13:22;;;;;;;6.90;4.60;;;;;;;12.83;62.31;95255.41;5019457;28;20200;-72
2023/10/14 01:15:51;;;;;;;8.68;5.03;;;;;;;12.82;62.55;95256.53;5019517;28;20296;-72
2023/10/14 01:18:18;;;;;;;8.40;5.20;;;;;;;12.75;62.69;95260.78;5018879;28;20226;-72
2023/10/14 01:20:46;;;;;;;7.15;4.70;;;;;;;12.69;62.55;95248.38;5035723;28;20515;-72
2023/10/14 01:23:16;;;;;;;5.45;4.90;;;;;;;12.68;62.83;95257.06;5036005;28;20524;-72
2023/10/14 01:25:48;;;;;;;5.65;4.43;;;;;;;12.65;62.95;95253.03;5035960;28;20197;-71
2023/10/14 01:28:21;;;;;;;6.75;4.82;;;;;;;12.66;62.46;95251.06;5019393;28;20195;-71
2023/10/14 01:31:11;;;;;;;6.88;4.60;;;;;;;12.57;62.71;95242.19;5018534;28;20203;-71
2023/10/14 01:33:38;;;;;;;5.28;4.18;;;;;;;12.57;62.66;95242.19;5019276;28;20199;-71
2023/10/14 01:36:08;;;;;;;5.32;4.75;;;;;;;12.56;63.13;95249.66;5036055;28;20202;-71
2023/10/14 01:38:39;;;;;;;5.55;4.65;;;;;;;12.59;63.35;95242.63;5035421;28;20237;-72
2023/10/14 01:41:08;;;;;;;7.28;4.97;;;;;;;12.57;63.27;95244.97;5035952;28;20191;-71
2023/10/14 01:43:36;;;;;;;6.05;4.60;;;;;;;12.52;63.12;95246.03;5035362;28;20201;-71
2023/10/14 01:46:04;;;;;;;7.45;4.57;;;;;;;12.51;62.93;95238.88;5014885;28;20251;-71
2023/10/14 01:48:38;;;;;;;6.70;4.80;;;;;;;12.48;62.99;95240.41;5014788;28;20206;-71
2023/10/14 01:51:06;;;;;;;6.13;4.57;;;;;;;12.45;62.98;95245.84;5016033;28;20195;-72
2023/10/14 01:53:35;;;;;;;8.13;5.00;;;;;;;12.42;63.23;95244.63;5016151;28;20187;-72
2023/10/14 01:56:06;;;;;;;7.13;4.53;;;;;;;12.38;63.20;95246.53;5014836;28;20209;-72
2023/10/14 01:58:33;;;;;;;7.10;4.88;;;;;;;12.37;63.24;95239.38;5015019;28;20310;-72
2023/10/14 02:01:11;;;;;;;7.82;4.25;;;;;;;12.37;63.44;95242.13;5015325;28;20199;-72
2023/10/14 02:03:41;;;;;;;8.68;4.82;;;;;;;12.39;63.60;95245.34;5016212;28;20191;-71
2023/10/14 02:06:16;;;;;;;7.65;4.03;;;;;;;12.40;63.66;95240.63;5015700;28;20192;-72
2023/10/14 02:08:43;;;;;;;6.45;4.40;;;;;;;12.41;63.65;95240.25;5015600;28;20183;-72
2023/10/14 02:11:12;;;;;;;6.82;4.68;;;;;;;12.44;63.58;95235.97;5015120;28;20211;-72
2023/10/14 02:13:39;;;;;;;7.20;5.03;;;;;;;12.40;63.34;95233.13;5015619;28;20187;-72
2023/10/14 02:16:08;;;;;;;7.70;5.10;;;;;;;12.34;63.36;95230.97;5015563;28;20179;-72
2023/10/14 02:18:36;;;;;;;6.50;5.30;;;;;;;12.28;63.44;95233.25;5014280;28;20219;-72
2023/10/14 02:21:11;;;;;;;8.15;5.30;;;;;;;12.26;63.57;95235.56;5015363;28;20265;-72
2023/10/14 02:23:45;;;;;;;8.27;5.15;;;;;;;12.26;63.93;95243.84;5015537;28;20209;-72
2023/10/14 02:26:16;;;;;;;7.30;4.63;;;;;;;12.27;63.69;95235.22;5015073;28;20230;-72
2023/10/14 02:28:46;;;;;;;6.43;4.70;;;;;;;12.31;63.65;95234.47;5015044;28;20623;-72
2023/10/14 02:31:17;;;;;;;7.05;4.90;;;;;;;12.28;63.59;95236.00;5014734;28;20203;-72
2023/10/14 02:33:48;;;;;;;6.65;4.97;;;;;;;12.26;63.85;95230.03;5014824;28;20533;-71
2023/10/14 02:36:15;;;;;;;6.85;5.47;;;;;;;12.23;63.80;95231.53;5015694;28;20198;-72
2023/10/14 02:38:44;;;;;;;6.28;4.72;;;;;;;12.22;63.50;95226.38;5014945;28;20314;-72
2023/10/14 02:41:15;;;;;;;7.38;5.63;;;;;;;12.18;63.80;95219.97;5014385;28;20199;-72
2023/10/14 02:43:48;;;;;;;7.80;5.05;;;;;;;12.14;63.89;95217.13;5014122;28;20626;-72
2023/10/14 02:46:20;;;;;;;7.25;5.00;;;;;;;12.15;63.80;95220.69;5014300;28;20289;-71
2023/10/14 02:49:02;;;;;;;5.95;4.75;;;;;;;12.13;64.21;95228.50;5015220;28;20207;-72
2023/10/14 02:51:35;;;;;;;8.57;4.82;;;;;;;12.11;63.54;95228.88;5015269;28;20712;-72
2023/10/14 02:54:04;;;;;;;6.88;4.78;;;;;;;12.07;63.92;95229.97;5015175;28;20195;-72
2023/10/14 02:56:46;;;;;;;7.32;5.13;;;;;;;12.04;63.82;95235.03;5015214;28;20191;-72
2023/10/14 02:59:16;;;;;;;6.15;4.65;;;;;;;12.04;64.20;95223.97;5014173;28;20211;-72
2023/10/14 03:01:50;;;;;;;7.68;4.70;;;;;;;12.01;64.07;95219.16;5015347;28;20253;-72
2023/10/14 03:04:19;;;;;;;5.22;4.60;;;;;;;11.99;64.25;95224.28;5015104;28;20223;-72
2023/10/14 03:06:53;;;;;;;8.18;5.28;;;;;;;12.00;64.40;95222.31;5014223;28;20266;-72
2023/10/14 03:09:32;;;;;;;8.07;4.82;;;;;;;12.04;64.08;95217.66;5014368;28;20206;-72
2023/10/14 03:12:00;;;;;;;6.82;4.72;;;;;;;12.06;64.11;95215.34;5015033;28;20187;-72
2023/10/14 03:14:29;;;;;;;5.78;5.18;;;;;;;12.03;64.03;95222.38;5013783;28;20199;-72
2023/10/14 03:16:57;;;;;;;6.82;5.18;;;;;;;11.99;63.99;95217.94;5014075;28;20230;-72
2023/10/14 03:19:25;;;;;;;7.18;5.05;;;;;;;11.98;64.01;95219.91;5014318;28;20630;-72
2023/10/14 03:21:58;;;;;;;8.77;5.10;;;;;;;12.01;63.94;95216.41;5014943;28;20194;-72
2023/10/14 03:24:27;;;;;;;8.05;5.28;;;;;;;11.99;64.14;95223.47;5017568;28;20242;-71
2023/10/14 03:27:02;;;;;;;7.20;4.85;;;;;;;11.93;63.86;95222.94;5018447;28;20187;-72
2023/10/14 03:29:31;;;;;;;7.20;4.93;;;;;;;11.87;64.33;95223.56;5017254;28;20201;-71
2023/10/14 03:31:57;;;;;;;6.43;4.82;;;;;;;11.85;64.13;95221.16;5018078;28;20290;-71
2023/10/14 03:34:30;;;;;;;6.03;5.00;;;;;;;11.80;64.39;95224.97;5017443;28;20203;-71
2023/10/14 03:37:00;;;;;;;5.93;5.30;;;;;;;11.78;64.27;95232.00;5017986;28;20491;-71
2023/10/14 03:39:38;;;;;;;5.80;4.85;;;;;;;11.73;64.62;95230.31;5018649;28;20211;-71
2023/10/14 03:42:10;;;;;;;6.07;5.13;;;;;;;11.69;64.60;95221.13;5018171;28;20252;-71
2023/10/14 03:44:41;;;;;;;7.05;5.22;;;;;;;11.70;64.70;95219.97;5017898;28;20223;-71
2023/10/14 03:47:14;;;;;;;7.47;5.45;;;;;;;11.69;64.69;95228.59;5017175;28;20329;-71
2023/10/14 03:49:43;;;;;;;8.77;4.93;;;;;;;11.67;64.75;95211.59;5017716;28;20191;-70
2023/10/14 03:52:12;;;;;;;9.73;4.78;;;;;;;11.65;65.05;95211.94;5017340;28;20209;-71
2023/10/14 03:54:42;;;;;;;9.40;6.18;;;;;;;11.66;64.86;95213.56;5018225;28;20180;-71
2023/10/14 03:57:14;;;;;;;9.23;5.55;;;;;;;11.64;64.95;95218.63;5017683;28;20195;-71
2023/10/14 03:59:46;;;;;;;9.32;6.05;;;;;;;11.61;64.96;95215.78;5017723;28;20211;-71
2023/10/14 04:02:18;;;;;;;10.05;5.90;;;;;;;11.56;64.94;95206.59;5017371;28;20228;-71
2023/10/14 04:04:46;;;;;;;11.65;6.00;;;;;;;11.54;65.45;95208.09;5018448;28;20253;-71
2023/10/14 04:07:16;;;;;;;7.70;5.70;;;;;;;11.53;65.28;95210.06;5018012;28;20554;-71
2023/10/14 04:09:50;;;;;;;8.43;5.65;;;;;;;11.53;65.49;95203.75;5017900;28;20270;-71
2023/10/14 04:12:29;;;;;;;10.05;6.30;;;;;;;11.53;65.28;95206.50;5017633;28;20194;-71
2023/10/14 04:15:05;;;;;;;10.82;6.07;;;;;;;11.47;65.17;95208.72;5017357;28;20191;-71
2023/10/14 04:17:32;;;;;;;7.43;6.00;;;;;;;11.45;65.18;95204.72;5016835;28;20241;-71
2023/10/14 04:20:15;;;;;;;10.55;7.15;;;;;;;11.46;65.25;95206.31;5017982;28;20218;-72
2023/10/14 04:22:43;;;;;;;11.90;6.88;;;;;;;11.42;65.10;95202.66;5017519;28;20202;-72
2023/10/14 04:25:21;;;;;;;12.25;8.40;;;;;;;11.43;65.51;95204.25;5016256;28;20202;-71
2023/10/14 04:30:42;;;;;;;9.80;6.00;;;;;;;11.42;65.80;95206.22;5017361;28;20289;-72
2023/10/14 04:33:18;;;;;;;10.30;6.18;;;;;;;11.44;65.25;95201.16;5017507;28;20191;-72
2023/10/14 04:35:58;;;;;;;12.48;7.95;;;;;;;11.45;65.39;95208.28;5017146;28;20222;-72
2023/10/14 04:38:37;;;;;;;9.32;6.50;;;;;;;11.42;65.45;95203.47;5017419;28;20187;-71
2023/10/14 04:41:12;;;;;;;10.30;6.05;;;;;;;11.42;65.77;95202.66;5016026;28;20546;-71
2023/10/14 04:43:54;;;;;;;14.35;7.72;;;;;;;11.42;65.72;95208.19;5016504;28;20203;-71
2023/10/14 04:46:32;;;;;;;10.35;6.57;;;;;;;11.43;65.70;95207.81;5025092;28;20287;-71
2023/10/14 04:49:06;;;;;;;10.32;6.55;;;;;;;11.41;65.40;95207.38;5036350;28;20194;-72
2023/10/14 04:51:38;;;;;;;12.60;7.85;;;;;;;11.39;65.13;95211.66;5019270;28;20217;-71
2023/10/14 04:54:09;;;;;;;10.60;7.18;;;;;;;11.35;65.30;95208.00;5036250;28;20522;-73
2023/10/14 04:56:36;;;;;;;9.80;6.97;;;;;;;11.36;65.75;95204.88;5019714;28;20205;-72
2023/10/14 04:59:05;;;;;;;11.40;6.65;;;;;;;11.38;65.53;95208.09;5019096;28;20214;-72
2023/10/14 05:01:34;;;;;;;13.73;7.00;;;;;;;11.39;65.66;95208.88;5036436;28;20186;-72
2023/10/14 05:04:01;;;;;;;11.32;7.18;;;;;;;11.40;66.01;95207.72;5036393;28;20194;-72
2023/10/14 05:06:30;;;;;;;14.70;7.32;;;;;;;11.41;65.75;95210.16;5037699;28;20191;-69
2023/10/14 05:08:57;;;;;;;11.68;7.68;;;;;;;11.40;65.55;95213.25;5019619;28;20206;-69
2023/10/14 05:11:26;;;;;;;17.05;7.07;;;;;;;11.40;65.90;95211.31;5019525;28;20265;-69
2023/10/14 05:14:07;;;;;;;13.75;7.25;;;;;;;11.42;65.87;95208.19;5036788;28;20246;-69
2023/10/14 05:16:53;;;;;;;14.43;7.38;;;;;;;11.41;66.36;95210.16;5019604;28;20283;-70
2023/10/14 05:19:23;;;;;;;14.30;7.38;;;;;;;11.38;66.02;95215.59;5018769;28;20248;-69
2023/10/14 05:21:57;;;;;;;14.93;7.85;;;;;;;11.33;65.73;95220.22;5018927;28;20190;-69
2023/10/14 05:24:28;;;;;;;13.30;9.00;;;;;;;11.33;65.99;95213.88;5035718;28;20485;-70
2023/10/14 05:27:00;;;;;;;16.13;9.02;;;;;;;11.36;66.04;95221.44;5035675;28;20199;-70
2023/10/14 05:29:27;;;;;;;15.63;7.60;;;;;;;11.40;66.08;95225.13;5019374;28;20199;-70
2023/10/14 05:32:04;;;;;;;14.63;8.88;;;;;;;11.48;66.30;95228.88;5019325;28;20198;-70
2023/10/14 05:34:33;;;;;;;14.95;9.20;;;;;;;11.50;66.19;95223.78;5036419;28;20208;-70
2023/10/14 05:37:00;;;;;;;14.90;8.88;;;;;;;11.55;66.28;95229.84;5035637;28;20252;-70
2023/10/14 05:39:28;;;;;;;13.98;8.80;;;;;;;11.62;66.31;95237.53;5018536;28;20232;-70
2023/10/14 05:41:59;;;;;;;11.82;7.85;;;;;;;11.67;66.26;95237.25;5018630;28;20199;-70
2023/10/14 05:44:27;;;;;;;12.65;7.57;;;;;;;11.73;66.53;95243.34;5019318;28;20209;-70
2023/10/14 05:46:56;;;;;;;12.27;8.55;;;;;;;11.78;66.47;95240.28;5035114;28;20238;-70
2023/10/14 05:49:24;;;;;;;16.85;8.15;;;;;;;11.79;66.56;95239.13;5018257;28;20198;-70
2023/10/14 05:51:52;;;;;;;16.75;8.52;;;;;;;11.81;66.50;95245.91;5019088;28;20194;-70
2023/10/14 05:54:19;;;;;;;14.13;8.25;;;;;;;11.86;66.57;95241.28;5018214;28;20210;-70
2023/10/14 05:56:46;;;;;;;14.65;8.77;;;;;;;11.92;66.74;95248.16;5018708;28;20299;-70
2023/10/14 05:59:15;;;;;;;12.75;8.05;;;;;;;11.92;67.14;95242.66;5035652;28;20220;-70
2023/10/14 06:01:45;;;;;;;14.18;8.73;;;;;;;11.96;67.02;95244.34;5018142;28;20195;-70
2023/10/14 06:04:14;;;;;;;12.82;8.73;;;;;;;12.04;66.67;95248.06;5018245;28;20194;-70
2023/10/14 06:06:41;;;;;;;13.88;9.35;;;;;;;12.13;66.40;95253.41;5018757;28;20222;-70
2023/10/14 06:09:09;;;;;;;15.65;12.38;;;;;;;12.20;66.20;95242.50;5035357;28;20201;-70
2023/10/14 06:11:36;;;;;;;14.70;11.10;;;;;;;12.27;66.53;95246.28;5018259;28;20207;-70
2023/10/14 06:14:03;;;;;;;18.45;11.75;;;;;;;12.36;66.21;95242.50;5035025;28;20182;-70
2023/10/14 06:16:31;;;;;;;16.92;11.70;;;;;;;12.43;65.94;95242.66;5035250;28;20191;-70
2023/10/14 06:18:59;;;;;;;19.30;12.35;;;;;;;12.49;66.13;95241.19;5018614;28;20306;-70
2023/10/14 06:21:28;;;;;;;16.88;12.10;;;;;;;12.56;66.06;95241.38;5035167;28;20210;-70
2023/10/14 06:23:55;;;;;;;16.13;11.52;;;;;;;12.64;65.96;95243.16;5018039;28;20206;-70
2023/10/14 06:26:21;;;;;;;21.40;12.00;;;;;;;12.71;65.50;95240.53;5018113;28;20205;-69
2023/10/14 06:28:49;;;;;;;17.98;12.25;;;;;;;12.78;65.53;95242.63;5017792;28;20208;-70
2023/10/14 06:31:18;;;;;;;15.38;12.02;;;;;;;12.85;65.12;95240.00;5018496;28;20263;-70
2023/10/14 06:33:46;;;;;;;12.93;11.55;;;;;;;12.92;64.93;95234.63;5017685;28;20252;-69
2023/10/14 06:36:15;;;;;;;14.30;10.68;;;;;;;13.00;64.33;95233.63;5017856;28;20198;-69
2023/10/14 06:38:45;;;;;;;11.80;9.38;;;;;;;13.08;64.34;95239.31;5035506;28;20186;-70
2023/10/14 06:41:16;;;;;;;15.75;10.40;;;;;;;13.13;64.06;95237.03;5018377;28;20229;-70
2023/10/14 06:43:43;;;;;;;14.77;10.32;;;;;;;13.21;63.86;95236.00;5017613;28;20273;-70
2023/10/14 06:46:11;;;;;;;11.57;9.82;;;;;;;13.30;63.75;95230.28;5035003;28;20259;-70
2023/10/14 06:48:39;;;;;;;11.88;9.77;;;;;;;13.40;63.71;95228.91;5017789;28;20248;-70
2023/10/14 06:51:09;;;;;;;11.95;9.55;;;;;;;13.48;63.37;95231.41;5034772;28;20197;-70
2023/10/14 06:53:36;;;;;;;11.95;9.50;;;;;;;13.60;62.97;95226.88;5017162;28;20206;-70
2023/10/14 06:56:05;;;;;;;11.95;9.90;;;;;;;13.68;63.03;95223.84;5034956;28;20198;-69
2023/10/14 06:58:33;;;;;;;11.88;9.40;;;;;;;13.80;62.89;95233.97;5037385;28;20187;-69
2023/10/14 07:01:00;;;;;;;11.13;8.45;;;;;;;13.92;62.57;95231.00;5038931;28;20210;-70
2023/10/14 07:03:28;;;;;;;11.32;8.57;;;;;;;14.01;62.39;95225.19;5039613;28;20179;-70
2023/10/14 07:05:58;;;;;;;12.23;9.10;;;;;;;14.13;62.08;95218.66;5038705;28;20186;-75
2023/10/14 07:08:27;;;;;;;11.10;8.40;;;;;;;14.24;61.52;95218.84;5020763;28;20297;-71
2023/10/14 07:10:55;;;;;;;10.60;8.45;;;;;;;14.36;61.05;95216.63;5038292;28;20214;-70
2023/10/14 07:13:25;;;;;;;11.27;8.13;;;;;;;14.49;60.51;95217.25;5020844;28;20198;-70
2023/10/14 07:15:53;;;;;;;10.98;7.88;;;;;;;14.62;60.62;95212.28;5038429;28;20179;-70
2023/10/14 07:18:23;;;;;;;10.45;7.93;;;;;;;14.73;61.19;95209.66;5038389;28;20210;-70
2023/10/14 07:20:57;;;;;;;11.65;7.78;;;;;;;14.81;61.07;95214.91;5037957;28;20222;-70
2023/10/14 07:23:24;;;;;;;10.20;7.90;;;;;;;14.86;60.84;95214.59;5038335;28;20186;-70
2023/10/14 07:25:52;;;;;;;11.57;7.60;;;;;;;14.93;60.23;95211.91;5038499;28;20191;-70
2023/10/14 07:28:20;;;;;;;10.10;7.43;;;;;;;14.98;60.00;95204.44;5021357;28;20195;-70
2023/10/14 07:30:48;;;;;;;10.32;8.32;;;;;;;14.98;59.74;95202.44;5020339;28;20201;-70
2023/10/14 07:33:16;;;;;;;11.50;7.10;;;;;;;15.00;59.42;95199.31;5037816;28;20228;-70
2023/10/14 07:35:43;;;;;;;10.73;7.60;;;;;;;15.03;59.66;95198.53;5020749;28;20210;-70
2023/10/14 07:38:10;;;;;;;9.18;7.90;;;;;;;15.13;59.94;95197.84;5020619;28;20194;-69
2023/10/14 07:40:38;;;;;;;10.40;8.02;;;;;;;15.24;60.09;95201.56;5037925;28;20202;-70
2023/10/14 07:43:07;;;;;;;11.30;7.60;;;;;;;15.35;59.78;95198.91;5020682;28;20305;-70
2023/10/14 07:45:36;;;;;;;9.35;8.20;;;;;;;15.46;59.05;95190.66;5020694;28;20244;-70
2023/10/14 07:48:08;;;;;;;13.38;8.23;;;;;;;15.59;58.97;95183.66;5020744;28;20202;-69
2023/10/14 07:50:37;;;;;;;10.82;8.02;;;;;;;15.67;59.00;95182.56;5037394;28;20715;-69
2023/10/14 07:53:08;;;;;;;10.43;8.23;;;;;;;15.75;58.66;95175.09;5020881;28;20530;-69
2023/10/14 07:55:36;;;;;;;12.75;8.32;;;;;;;15.82;58.55;95173.19;5037738;28;20200;-69
2023/10/14 07:58:08;;;;;;;9.30;7.90;;;;;;;15.91;58.73;95169.28;5037484;28;20234;-70
2023/10/14 08:00:39;;;;;;;13.25;9.07;;;;;;;16.03;57.47;95164.22;5019800;28;20222;-70
2023/10/14 08:11:01;;;;;;;12.05;8.32;;;;;;;16.15;55.87;95162.31;6075101;22;20169;-73
2023/10/14 08:13:49;;;;;;;13.50;9.73;;;;;;;16.32;55.42;95168.00;4997943;28;20262;-73
2023/10/14 08:16:34;;;;;;;14.50;9.73;;;;;;;16.46;55.30;95163.72;4998064;28;20246;-74
2023/10/14 08:19:06;;;;;;;11.88;8.85;;;;;;;16.62;54.20;95164.19;4998034;28;20176;-72
2023/10/14 08:21:36;;;;;;;13.95;9.85;;;;;;;16.72;54.70;95163.47;4997851;28;20236;-72
2023/10/14 08:24:05;;;;;;;13.18;10.13;;;;;;;16.90;53.65;95162.78;4980892;28;20537;-73
2023/10/14 08:26:35;;;;;;;12.13;9.70;;;;;;;17.02;53.53;95157.63;4980938;28;20262;-71
2023/10/14 08:29:03;;;;;;;12.38;9.65;;;;;;;17.12;52.28;95149.72;5378853;22;20567;-71
2023/10/14 08:31:32;;;;;;;16.70;10.13;;;;;;;17.21;52.54;95148.19;5017349;28;20206;-70
2023/10/14 08:34:01;;;;;;;12.70;9.25;;;;;;;17.33;52.35;95141.44;4999759;28;20282;-71
2023/10/14 08:36:29;;;;;;;14.38;10.10;;;;;;;17.41;52.75;95137.44;5000065;28;20203;-70
2023/10/14 08:38:58;;;;;;;11.10;8.93;;;;;;;17.49;52.26;95130.69;4999893;28;20230;-70
2023/10/14 08:41:29;;;;;;;12.13;9.50;;;;;;;17.48;51.78;95126.31;4999931;28;20211;-70
2023/10/14 08:44:08;;;;;;;15.30;9.68;;;;;;;17.63;51.23;95135.50;5017089;28;20265;-69
2023/10/14 08:46:39;;;;;;;10.65;8.10;;;;;;;17.82;50.51;95125.16;5017041;28;20191;-69
2023/10/14 08:49:07;;;;;;;10.85;8.35;;;;;;;17.97;49.57;95121.19;5017067;28;20194;-69
2023/10/14 08:51:37;;;;;;;10.68;7.63;;;;;;;18.15;47.39;95121.16;5016621;28;20529;-70
2023/10/14 08:54:06;;;;;;;9.45;7.05;;;;;;;18.26;47.11;95108.81;5017131;28;20195;-70
2023/10/14 08:56:35;;;;;;;13.25;8.88;;;;;;;18.37;47.81;95114.34;5016563;28;20209;-72
2023/10/14 08:59:03;;;;;;;10.95;8.90;;;;;;;18.47;46.80;95110.72;5000320;28;20557;-72
2023/10/14 09:01:32;;;;;;;12.75;8.77;;;;;;;18.52;47.98;95107.53;5016703;28;20203;-72
2023/10/14 09:03:59;;;;;;;10.63;8.35;;;;;;;18.68;47.04;95109.09;5016778;28;20187;-70
2023/10/14 09:06:28;;;;;;;10.93;8.20;;;;;;;18.72;47.80;95099.50;5016689;28;20195;-71
2023/10/14 09:08:56;;;;;;;10.60;7.88;;;;;;;18.81;48.21;95101.06;5016541;28;20286;-71
2023/10/14 09:11:28;;;;;;;13.23;7.40;;;;;;;18.95;46.33;95096.25;4999246;28;20636;-71
2023/10/14 09:14:05;;;;;;;11.45;8.48;;;;;;;19.08;46.16;95099.38;4999378;28;20249;-71
2023/10/14 09:16:36;;;;;;;10.45;7.80;;;;;;;19.23;46.17;95089.69;5016730;28;20187;-72
2023/10/14 09:19:05;;;;;;;8.98;7.30;;;;;;;19.36;45.03;95084.44;5016078;28;20183;-71
2023/10/14 09:21:33;;;;;;;12.82;8.13;;;;;;;19.37;44.86;95079.63;4998488;28;20242;-71
2023/10/14 09:24:07;;;;;;;9.18;7.65;;;;;;;19.38;45.24;95079.22;4999829;28;20207;-71
2023/10/14 09:26:38;;;;;;;11.43;7.60;;;;;;;19.44;45.98;95074.78;4999319;28;20204;-71
2023/10/14 09:29:09;;;;;;;8.70;6.30;;;;;;;19.46;45.66;95069.59;5016198;28;20227;-71
2023/10/14 09:31:40;;;;;;;10.23;6.97;;;;;;;19.47;45.63;95062.78;5016303;28;20199;-71
2023/10/14 09:34:08;;;;;;;8.45;7.25;;;;;;;19.54;45.39;95055.53;5015927;28;20183;-71
2023/10/14 09:36:42;;;;;;;7.85;6.07;;;;;;;19.65;44.62;95054.28;4999587;28;20203;-71
2023/10/14 09:39:20;;;;;;;12.63;7.32;;;;;;;19.84;44.45;95046.53;5016019;28;20266;-71
2023/10/14 09:41:48;;;;;;;8.07;6.63;;;;;;;20.16;43.80;95041.41;4998678;28;20619;-71
2023/10/14 09:44:19;;;;;;;7.80;5.55;;;;;;;20.38;43.33;95035.59;5015989;28;20193;-71
2023/10/14 09:46:49;;;;;;;8.07;6.30;;;;;;;20.39;42.81;95035.16;5016262;28;20183;-71
2023/10/14 09:49:17;;;;;;;6.82;5.68;;;;;;;20.52;43.27;95029.84;5015708;28;20275;-72
2023/10/14 09:51:48;;;;;;;8.32;5.70;;;;;;;20.56;42.71;95018.59;5015653;28;20270;-71
2023/10/14 09:56:50;;;;;;;9.32;5.60;;;;;;;20.67;41.70;95008.06;5085187;22;20238;-71
2023/10/14 09:59:21;;;;;;;8.38;6.38;;;;;;;20.75;43.27;95001.13;5016386;28;20634;-72
2023/10/14 10:01:48;;;;;;;9.88;6.18;;;;;;;20.76;43.20;94996.31;5015641;28;20266;-69
2023/10/14 10:04:18;;;;;;;12.75;6.50;;;;;;;20.82;41.75;94998.25;5016268;28;20202;-69
2023/10/14 10:06:52;;;;;;;7.10;5.93;;;;;;;21.12;40.81;94991.78;4999268;28;20199;-69
2023/10/14 10:09:34;;;;;;;7.80;6.50;;;;;;;21.26;39.97;94985.19;4998539;28;20556;-69
2023/10/14 10:12:04;;;;;;;6.43;5.60;;;;;;;21.31;40.65;94983.91;4999222;28;20210;-69
2023/10/14 10:14:38;;;;;;;9.52;5.60;;;;;;;21.30;41.37;94976.72;5015739;28;20195;-69
2023/10/14 10:17:08;;;;;;;8.93;5.82;;;;;;;21.38;40.75;94978.22;5015396;28;20206;-69
2023/10/14 10:20:08;;;;;;;8.82;6.15;;;;;;;21.61;39.76;94974.66;5015625;28;20183;-69
2023/10/14 10:22:41;;;;;;;8.30;5.80;;;;;;;21.65;40.18;94954.94;4998306;28;20207;-69
2023/10/14 10:25:11;;;;;;;11.75;5.95;;;;;;;21.72;39.44;94952.81;5015467;28;20194;-70
2023/10/14 10:27:38;;;;;;;6.35;5.22;;;;;;;21.79;39.70;94949.06;4998316;28;20203;-69
2023/10/14 10:30:11;;;;;;;6.88;5.18;;;;;;;21.88;39.35;94946.50;5015769;28;20187;-69
2023/10/14 10:32:41;;;;;;;7.10;5.03;;;;;;;21.92;38.51;94932.38;5001435;28;20201;-69
2023/10/14 10:35:18;;;;;;;6.90;4.72;;;;;;;21.98;38.66;94933.47;5002641;28;20203;-69
2023/10/14 10:37:50;;;;;;;6.13;4.63;;;;;;;21.95;38.77;94923.09;5002145;28;20210;-69
2023/10/14 10:40:25;;;;;;;5.53;4.53;;;;;;;21.97;38.96;94921.47;5002742;28;20278;-69
2023/10/14 10:42:54;;;;;;;7.35;4.78;;;;;;;22.01;38.73;94913.75;5019191;28;20179;-69
2023/10/14 10:45:24;;;;;;;5.75;4.70;;;;;;;22.05;38.54;94908.06;5002087;28;20293;-69
2023/10/14 10:47:55;;;;;;;8.82;4.68;;;;;;;22.08;37.96;94913.63;5002879;28;20509;-69
2023/10/14 10:50:23;;;;;;;6.32;4.65;;;;;;;22.13;38.33;94906.69;5019437;28;20201;-69
2023/10/14 10:52:55;;;;;;;6.32;4.72;;;;;;;22.25;37.57;94900.44;5003781;28;20195;-70
2023/10/14 10:55:24;;;;;;;7.35;4.68;;;;;;;22.20;37.58;94897.38;5019818;28;20678;-71
2023/10/14 10:57:57;;;;;;;6.57;4.97;;;;;;;22.23;37.41;94893.69;5002597;28;20191;-69
2023/10/14 11:00:26;;;;;;;7.43;4.45;;;;;;;22.36;37.51;94883.38;5002761;28;20238;-69
2023/10/14 11:02:57;;;;;;;6.43;4.70;;;;;;;22.45;37.43;94875.16;5018841;28;20215;-69
2023/10/14 11:05:25;;;;;;;9.07;4.38;;;;;;;22.39;37.39;94882.50;5002721;28;20203;-69
2023/10/14 11:07:53;;;;;;;6.85;4.63;;;;;;;22.34;38.35;94871.78;5019338;28;20184;-70
2023/10/14 11:10:23;;;;;;;6.40;5.07;;;;;;;22.28;37.71;94870.72;5020002;28;20516;-69
2023/10/14 11:12:50;;;;;;;7.72;6.45;;;;;;;22.45;36.59;94865.94;5018930;28;20175;-69
2023/10/14 11:15:20;;;;;;;8.30;5.28;;;;;;;22.48;36.48;94863.06;5019057;28;20187;-69
2023/10/14 11:17:53;;;;;;;6.07;4.40;;;;;;;22.53;37.06;94854.09;5018902;28;20203;-69
2023/10/14 11:20:22;;;;;;;5.95;4.35;;;;;;;22.64;36.18;94853.06;5018652;28;20188;-69
2023/10/14 11:22:49;;;;;;;6.68;4.45;;;;;;;22.76;35.17;94853.16;5018237;28;20207;-69
2023/10/14 11:25:19;;;;;;;6.68;3.60;;;;;;;22.78;35.43;94839.47;5001255;28;20195;-69
2023/10/14 11:27:47;;;;;;;4.93;4.35;;;;;;;22.83;35.24;94852.19;5002079;28;20199;-69
2023/10/14 11:30:14;;;;;;;5.72;3.47;;;;;;;22.83;34.52;94827.69;5001161;28;20234;-69
2023/10/14 11:32:47;;;;;;;4.60;3.45;;;;;;;22.87;34.87;94838.06;5018178;28;20179;-69
2023/10/14 11:35:18;;;;;;;6.10;3.75;;;;;;;22.91;35.09;94830.31;5018625;28;20198;-69
2023/10/14 11:37:50;;;;;;;5.50;3.30;;;;;;;23.00;34.03;94827.72;5000888;28;20310;-69
2023/10/14 11:40:18;;;;;;;4.55;3.75;;;;;;;23.04;33.67;94826.41;5001743;28;20209;-69
2023/10/14 11:42:45;;;;;;;3.60;3.30;;;;;;;23.06;33.67;94818.34;4999823;28;20305;-69
2023/10/14 11:45:12;;;;;;;5.72;3.75;;;;;;;23.10;34.35;94814.66;5017697;28;20230;-69
2023/10/14 11:47:39;;;;;;;3.80;3.47;;;;;;;23.13;33.56;94817.38;5001156;28;20203;-69
2023/10/14 11:50:12;;;;;;;4.78;3.70;;;;;;;23.16;33.79;94810.03;5017721;28;20183;-69
2023/10/14 11:52:42;;;;;;;5.10;3.85;;;;;;;23.15;33.37;94816.91;5001371;28;20203;-69
2023/10/14 11:55:14;;;;;;;4.53;4.13;;;;;;;23.15;33.36;94809.25;5017545;28;20332;-69
2023/10/14 11:57:42;;;;;;;4.70;3.53;;;;;;;23.14;33.43;94801.28;5000951;28;20202;-69